sensor_id;sensor_type;location;lat;lon;timestamp;P1;durP1;ratioP1;P2;durP2;ratioP2
1400;SDS011;46518;48.842;8.926;2023-03-04T00:01:01;33.45;;;19.75;;
1400;SDS011;46518;48.842;8.926;2023-03-04T00:03:29;30.52;;;18.60;;
1400;SDS011;46518;48.842;8.926;2023-03-04T00:05:57;36.65;;;19.50;;
1400;SDS011;46518;48.842;8.926;2023-03-04T00:08:25;39.63;;;19.55;;
1400;SDS011;46518;48.842;8.926;2023-03-04T00:10:53;35.88;;;21.20;;
1400;SDS011;46518;48.842;8.926;2023-03-04T00:13:21;29.65;;;18.40;;
1400;SDS011;46518;48.842;8.926;2023-03-04T00:15:52;36.95;;;20.73;;
1400;SDS011;46518;48.842;8.926;2023-03-04T00:18:20;30.33;;;17.75;;
1400;SDS011;46518;48.842;8.926;2023-03-04T00:20:48;31.45;;;19.10;;
1400;SDS011;46518;48.842;8.926;2023-03-04T00:23:19;37.65;;;20.30;;
1400;SDS011;46518;48.842;8.926;2023-03-04T00:25:47;33.58;;;18.63;;
1400;SDS011;46518;48.842;8.926;2023-03-04T00:28:15;34.22;;;18.95;;
1400;SDS011;46518;48.842;8.926;2023-03-04T00:30:43;28.00;;;18.13;;
1400;SDS011;46518;48.842;8.926;2023-03-04T00:33:12;32.50;;;18.30;;
1400;SDS011;46518;48.842;8.926;2023-03-04T00:35:40;31.13;;;19.65;;
1400;SDS011;46518;48.842;8.926;2023-03-04T00:38:09;32.45;;;18.63;;
1400;SDS011;46518;48.842;8.926;2023-03-04T00:40:37;29.27;;;17.52;;
1400;SDS011;46518;48.842;8.926;2023-03-04T00:43:05;33.65;;;19.67;;
1400;SDS011;46518;48.842;8.926;2023-03-04T00:45:33;37.28;;;21.00;;
1400;SDS011;46518;48.842;8.926;2023-03-04T00:48:01;33.00;;;19.50;;
1400;SDS011;46518;48.842;8.926;2023-03-04T00:50:31;30.13;;;18.08;;
1400;SDS011;46518;48.842;8.926;2023-03-04T00:52:59;35.05;;;20.52;;
1400;SDS011;46518;48.842;8.926;2023-03-04T00:55:28;30.05;;;19.13;;
1400;SDS011;46518;48.842;8.926;2023-03-04T00:57:56;27.33;;;16.92;;
1400;SDS011;46518;48.842;8.926;2023-03-04T01:00:24;33.85;;;20.15;;
1400;SDS011;46518;48.842;8.926;2023-03-04T01:02:53;33.90;;;19.55;;
1400;SDS011;46518;48.842;8.926;2023-03-04T01:05:21;32.55;;;18.92;;
1400;SDS011;46518;48.842;8.926;2023-03-04T01:07:50;33.85;;;18.50;;
1400;SDS011;46518;48.842;8.926;2023-03-04T01:10:19;34.00;;;18.25;;
1400;SDS011;46518;48.842;8.926;2023-03-04T01:12:47;30.55;;;17.70;;
1400;SDS011;46518;48.842;8.926;2023-03-04T01:15:15;31.58;;;18.63;;
1400;SDS011;46518;48.842;8.926;2023-03-04T01:17:43;25.40;;;16.77;;
1400;SDS011;46518;48.842;8.926;2023-03-04T01:20:14;32.63;;;18.05;;
1400;SDS011;46518;48.842;8.926;2023-03-04T01:22:43;30.45;;;18.02;;
1400;SDS011;46518;48.842;8.926;2023-03-04T01:25:13;34.22;;;17.52;;
1400;SDS011;46518;48.842;8.926;2023-03-04T01:27:41;31.00;;;18.30;;
1400;SDS011;46518;48.842;8.926;2023-03-04T01:30:10;29.63;;;18.23;;
1400;SDS011;46518;48.842;8.926;2023-03-04T01:32:39;32.10;;;19.80;;
1400;SDS011;46518;48.842;8.926;2023-03-04T01:35:08;29.15;;;18.40;;
1400;SDS011;46518;48.842;8.926;2023-03-04T01:37:36;28.50;;;17.80;;
1400;SDS011;46518;48.842;8.926;2023-03-04T01:40:05;25.17;;;16.38;;
1400;SDS011;46518;48.842;8.926;2023-03-04T01:42:37;34.53;;;19.52;;
1400;SDS011;46518;48.842;8.926;2023-03-04T01:45:06;27.95;;;18.80;;
1400;SDS011;46518;48.842;8.926;2023-03-04T01:47:39;31.50;;;19.58;;
1400;SDS011;46518;48.842;8.926;2023-03-04T01:50:10;34.17;;;20.45;;
1400;SDS011;46518;48.842;8.926;2023-03-04T01:52:44;27.00;;;17.85;;
1400;SDS011;46518;48.842;8.926;2023-03-04T01:55:16;28.83;;;19.58;;
1400;SDS011;46518;48.842;8.926;2023-03-04T01:57:47;35.30;;;19.02;;
1400;SDS011;46518;48.842;8.926;2023-03-04T02:00:21;31.05;;;18.85;;
1400;SDS011;46518;48.842;8.926;2023-03-04T02:02:56;35.97;;;21.27;;
1400;SDS011;46518;48.842;8.926;2023-03-04T02:05:26;33.63;;;19.65;;
1400;SDS011;46518;48.842;8.926;2023-03-04T02:07:55;38.28;;;19.13;;
1400;SDS011;46518;48.842;8.926;2023-03-04T02:10:25;29.48;;;18.48;;
1400;SDS011;46518;48.842;8.926;2023-03-04T02:12:55;34.47;;;20.95;;
1400;SDS011;46518;48.842;8.926;2023-03-04T02:15:23;40.38;;;19.88;;
1400;SDS011;46518;48.842;8.926;2023-03-04T02:17:51;29.58;;;18.55;;
1400;SDS011;46518;48.842;8.926;2023-03-04T02:20:22;31.65;;;20.25;;
1400;SDS011;46518;48.842;8.926;2023-03-04T02:23:00;35.75;;;20.65;;
1400;SDS011;46518;48.842;8.926;2023-03-04T02:25:34;33.17;;;21.10;;
1400;SDS011;46518;48.842;8.926;2023-03-04T02:28:11;30.35;;;19.70;;
1400;SDS011;46518;48.842;8.926;2023-03-04T02:30:39;34.90;;;20.23;;
1400;SDS011;46518;48.842;8.926;2023-03-04T02:33:09;32.60;;;20.40;;
1400;SDS011;46518;48.842;8.926;2023-03-04T02:35:42;37.13;;;18.60;;
1400;SDS011;46518;48.842;8.926;2023-03-04T02:38:11;36.30;;;21.10;;
1400;SDS011;46518;48.842;8.926;2023-03-04T02:40:40;40.53;;;22.00;;
1400;SDS011;46518;48.842;8.926;2023-03-04T02:43:15;34.55;;;20.90;;
1400;SDS011;46518;48.842;8.926;2023-03-04T02:45:45;32.95;;;18.70;;
1400;SDS011;46518;48.842;8.926;2023-03-04T02:48:19;34.45;;;20.33;;
1400;SDS011;46518;48.842;8.926;2023-03-04T02:50:50;32.20;;;18.38;;
1400;SDS011;46518;48.842;8.926;2023-03-04T02:53:20;37.00;;;20.90;;
1400;SDS011;46518;48.842;8.926;2023-03-04T02:55:49;35.17;;;22.42;;
1400;SDS011;46518;48.842;8.926;2023-03-04T02:58:21;41.15;;;22.85;;
1400;SDS011;46518;48.842;8.926;2023-03-04T03:00:49;33.00;;;22.20;;
1400;SDS011;46518;48.842;8.926;2023-03-04T03:03:17;36.35;;;22.58;;
1400;SDS011;46518;48.842;8.926;2023-03-04T03:05:46;36.75;;;21.05;;
1400;SDS011;46518;48.842;8.926;2023-03-04T03:08:14;35.60;;;21.55;;
1400;SDS011;46518;48.842;8.926;2023-03-04T03:10:42;32.90;;;20.48;;
1400;SDS011;46518;48.842;8.926;2023-03-04T03:13:11;38.80;;;22.58;;
1400;SDS011;46518;48.842;8.926;2023-03-04T03:15:40;41.90;;;23.05;;
1400;SDS011;46518;48.842;8.926;2023-03-04T03:18:09;41.78;;;21.83;;
1400;SDS011;46518;48.842;8.926;2023-03-04T03:20:37;41.63;;;23.25;;
1400;SDS011;46518;48.842;8.926;2023-03-04T03:23:06;35.45;;;21.98;;
1400;SDS011;46518;48.842;8.926;2023-03-04T03:25:35;44.10;;;23.45;;
1400;SDS011;46518;48.842;8.926;2023-03-04T03:28:04;40.42;;;22.60;;
1400;SDS011;46518;48.842;8.926;2023-03-04T03:30:32;48.17;;;25.95;;
1400;SDS011;46518;48.842;8.926;2023-03-04T03:33:04;45.00;;;24.67;;
1400;SDS011;46518;48.842;8.926;2023-03-04T03:35:32;49.47;;;26.42;;
1400;SDS011;46518;48.842;8.926;2023-03-04T03:38:01;35.83;;;20.63;;
1400;SDS011;46518;48.842;8.926;2023-03-04T03:40:29;54.35;;;25.35;;
1400;SDS011;46518;48.842;8.926;2023-03-04T03:42:57;50.55;;;28.25;;
1400;SDS011;46518;48.842;8.926;2023-03-04T03:45:25;46.60;;;24.00;;
1400;SDS011;46518;48.842;8.926;2023-03-04T03:47:53;38.50;;;20.95;;
1400;SDS011;46518;48.842;8.926;2023-03-04T03:50:23;42.33;;;24.90;;
1400;SDS011;46518;48.842;8.926;2023-03-04T03:52:51;47.20;;;24.98;;
1400;SDS011;46518;48.842;8.926;2023-03-04T03:55:19;49.15;;;22.48;;
1400;SDS011;46518;48.842;8.926;2023-03-04T03:57:48;37.97;;;23.65;;
1400;SDS011;46518;48.842;8.926;2023-03-04T04:00:16;39.05;;;21.67;;
1400;SDS011;46518;48.842;8.926;2023-03-04T04:02:46;40.20;;;21.45;;
1400;SDS011;46518;48.842;8.926;2023-03-04T04:05:14;43.03;;;23.13;;
1400;SDS011;46518;48.842;8.926;2023-03-04T04:07:43;46.30;;;21.83;;
1400;SDS011;46518;48.842;8.926;2023-03-04T04:10:11;43.75;;;24.40;;
1400;SDS011;46518;48.842;8.926;2023-03-04T04:12:40;46.85;;;22.13;;
1400;SDS011;46518;48.842;8.926;2023-03-04T04:15:09;41.50;;;24.83;;
1400;SDS011;46518;48.842;8.926;2023-03-04T04:17:38;47.60;;;27.25;;
1400;SDS011;46518;48.842;8.926;2023-03-04T04:20:07;50.00;;;27.15;;
1400;SDS011;46518;48.842;8.926;2023-03-04T04:22:36;49.92;;;26.27;;
1400;SDS011;46518;48.842;8.926;2023-03-04T04:25:06;44.78;;;24.58;;
1400;SDS011;46518;48.842;8.926;2023-03-04T04:27:36;50.15;;;23.23;;
1400;SDS011;46518;48.842;8.926;2023-03-04T04:30:05;41.38;;;24.73;;
1400;SDS011;46518;48.842;8.926;2023-03-04T04:32:33;40.85;;;22.77;;
1400;SDS011;46518;48.842;8.926;2023-03-04T04:35:01;44.13;;;22.23;;
1400;SDS011;46518;48.842;8.926;2023-03-04T04:37:30;40.55;;;22.17;;
1400;SDS011;46518;48.842;8.926;2023-03-04T04:39:58;40.67;;;23.38;;
1400;SDS011;46518;48.842;8.926;2023-03-04T04:42:27;43.28;;;21.95;;
1400;SDS011;46518;48.842;8.926;2023-03-04T04:44:55;44.45;;;23.48;;
1400;SDS011;46518;48.842;8.926;2023-03-04T04:47:23;46.60;;;23.08;;
1400;SDS011;46518;48.842;8.926;2023-03-04T04:49:51;40.75;;;23.80;;
1400;SDS011;46518;48.842;8.926;2023-03-04T04:52:19;46.53;;;24.23;;
1400;SDS011;46518;48.842;8.926;2023-03-04T04:54:48;48.33;;;25.30;;
1400;SDS011;46518;48.842;8.926;2023-03-04T04:57:16;51.88;;;27.00;;
1400;SDS011;46518;48.842;8.926;2023-03-04T04:59:45;55.28;;;28.23;;
1400;SDS011;46518;48.842;8.926;2023-03-04T05:02:14;52.13;;;28.05;;
1400;SDS011;46518;48.842;8.926;2023-03-04T05:04:42;54.88;;;29.65;;
1400;SDS011;46518;48.842;8.926;2023-03-04T05:07:10;45.85;;;23.67;;
1400;SDS011;46518;48.842;8.926;2023-03-04T05:09:38;50.92;;;28.63;;
1400;SDS011;46518;48.842;8.926;2023-03-04T05:12:07;39.70;;;21.85;;
1400;SDS011;46518;48.842;8.926;2023-03-04T05:14:35;43.58;;;24.70;;
1400;SDS011;46518;48.842;8.926;2023-03-04T05:17:04;43.28;;;24.40;;
1400;SDS011;46518;48.842;8.926;2023-03-04T05:19:32;53.28;;;26.95;;
1400;SDS011;46518;48.842;8.926;2023-03-04T05:22:01;55.13;;;28.10;;
1400;SDS011;46518;48.842;8.926;2023-03-04T05:24:29;52.47;;;25.27;;
1400;SDS011;46518;48.842;8.926;2023-03-04T05:26:57;44.75;;;23.52;;
1400;SDS011;46518;48.842;8.926;2023-03-04T05:29:29;45.60;;;24.77;;
1400;SDS011;46518;48.842;8.926;2023-03-04T05:31:57;48.05;;;23.02;;
1400;SDS011;46518;48.842;8.926;2023-03-04T05:34:27;46.83;;;25.35;;
1400;SDS011;46518;48.842;8.926;2023-03-04T05:36:55;52.33;;;26.05;;
1400;SDS011;46518;48.842;8.926;2023-03-04T05:39:23;48.42;;;28.52;;
1400;SDS011;46518;48.842;8.926;2023-03-04T05:41:51;51.72;;;26.75;;
1400;SDS011;46518;48.842;8.926;2023-03-04T05:44:20;54.42;;;28.38;;
1400;SDS011;46518;48.842;8.926;2023-03-04T05:46:49;55.97;;;28.77;;
1400;SDS011;46518;48.842;8.926;2023-03-04T05:49:18;45.97;;;25.67;;
1400;SDS011;46518;48.842;8.926;2023-03-04T05:51:48;68.20;;;29.55;;
1400;SDS011;46518;48.842;8.926;2023-03-04T05:54:16;58.00;;;30.75;;
1400;SDS011;46518;48.842;8.926;2023-03-04T05:56:44;52.83;;;30.83;;
1400;SDS011;46518;48.842;8.926;2023-03-04T05:59:12;56.25;;;29.60;;
1400;SDS011;46518;48.842;8.926;2023-03-04T06:01:46;59.55;;;29.80;;
1400;SDS011;46518;48.842;8.926;2023-03-04T06:04:14;61.60;;;27.80;;
1400;SDS011;46518;48.842;8.926;2023-03-04T06:06:43;62.10;;;30.77;;
1400;SDS011;46518;48.842;8.926;2023-03-04T06:09:13;60.10;;;30.08;;
1400;SDS011;46518;48.842;8.926;2023-03-04T06:11:42;65.47;;;29.60;;
1400;SDS011;46518;48.842;8.926;2023-03-04T06:14:10;52.58;;;29.00;;
1400;SDS011;46518;48.842;8.926;2023-03-04T06:16:38;58.60;;;27.90;;
1400;SDS011;46518;48.842;8.926;2023-03-04T06:19:06;45.30;;;26.63;;
1400;SDS011;46518;48.842;8.926;2023-03-04T06:21:34;53.10;;;27.33;;
1400;SDS011;46518;48.842;8.926;2023-03-04T06:24:03;62.28;;;29.15;;
1400;SDS011;46518;48.842;8.926;2023-03-04T06:26:32;53.45;;;25.02;;
1400;SDS011;46518;48.842;8.926;2023-03-04T06:29:00;49.53;;;26.75;;
1400;SDS011;46518;48.842;8.926;2023-03-04T06:31:29;59.20;;;30.55;;
1400;SDS011;46518;48.842;8.926;2023-03-04T06:33:57;51.45;;;26.63;;
1400;SDS011;46518;48.842;8.926;2023-03-04T06:36:25;51.55;;;27.25;;
1400;SDS011;46518;48.842;8.926;2023-03-04T06:38:53;46.58;;;26.52;;
1400;SDS011;46518;48.842;8.926;2023-03-04T06:41:21;53.35;;;27.05;;
1400;SDS011;46518;48.842;8.926;2023-03-04T06:43:53;46.30;;;25.33;;
1400;SDS011;46518;48.842;8.926;2023-03-04T06:46:21;48.75;;;24.85;;
1400;SDS011;46518;48.842;8.926;2023-03-04T06:48:50;52.53;;;23.17;;
1400;SDS011;46518;48.842;8.926;2023-03-04T06:51:18;55.45;;;25.10;;
1400;SDS011;46518;48.842;8.926;2023-03-04T06:53:47;51.40;;;25.70;;
1400;SDS011;46518;48.842;8.926;2023-03-04T06:56:15;52.33;;;25.35;;
1400;SDS011;46518;48.842;8.926;2023-03-04T06:58:43;60.75;;;28.88;;
1400;SDS011;46518;48.842;8.926;2023-03-04T07:01:14;64.95;;;28.88;;
1400;SDS011;46518;48.842;8.926;2023-03-04T07:03:44;52.28;;;28.00;;
1400;SDS011;46518;48.842;8.926;2023-03-04T07:06:14;59.05;;;29.40;;
1400;SDS011;46518;48.842;8.926;2023-03-04T07:08:44;58.10;;;26.73;;
1400;SDS011;46518;48.842;8.926;2023-03-04T07:11:12;59.33;;;30.65;;
1400;SDS011;46518;48.842;8.926;2023-03-04T07:13:41;60.50;;;30.45;;
1400;SDS011;46518;48.842;8.926;2023-03-04T07:16:10;53.53;;;27.48;;
1400;SDS011;46518;48.842;8.926;2023-03-04T07:18:41;51.53;;;26.05;;
1400;SDS011;46518;48.842;8.926;2023-03-04T07:21:12;55.33;;;29.35;;
1400;SDS011;46518;48.842;8.926;2023-03-04T07:23:41;51.72;;;25.15;;
1400;SDS011;46518;48.842;8.926;2023-03-04T07:26:09;57.63;;;26.75;;
1400;SDS011;46518;48.842;8.926;2023-03-04T07:28:38;52.92;;;25.80;;
1400;SDS011;46518;48.842;8.926;2023-03-04T07:31:09;47.83;;;24.02;;
1400;SDS011;46518;48.842;8.926;2023-03-04T07:33:41;38.13;;;21.00;;
1400;SDS011;46518;48.842;8.926;2023-03-04T07:36:09;40.50;;;22.33;;
1400;SDS011;46518;48.842;8.926;2023-03-04T07:38:41;42.28;;;20.75;;
1400;SDS011;46518;48.842;8.926;2023-03-04T07:41:11;37.63;;;21.00;;
1400;SDS011;46518;48.842;8.926;2023-03-04T07:43:40;37.13;;;21.45;;
1400;SDS011;46518;48.842;8.926;2023-03-04T07:46:08;41.10;;;21.52;;
1400;SDS011;46518;48.842;8.926;2023-03-04T07:48:38;37.30;;;20.52;;
1400;SDS011;46518;48.842;8.926;2023-03-04T07:51:09;42.05;;;20.95;;
1400;SDS011;46518;48.842;8.926;2023-03-04T07:53:39;39.78;;;20.33;;
1400;SDS011;46518;48.842;8.926;2023-03-04T07:56:10;35.80;;;19.42;;
1400;SDS011;46518;48.842;8.926;2023-03-04T07:58:39;39.00;;;19.63;;
1400;SDS011;46518;48.842;8.926;2023-03-04T08:01:08;36.13;;;19.60;;
1400;SDS011;46518;48.842;8.926;2023-03-04T08:03:37;38.05;;;21.42;;
1400;SDS011;46518;48.842;8.926;2023-03-04T08:06:08;38.42;;;21.10;;
1400;SDS011;46518;48.842;8.926;2023-03-04T08:08:37;35.70;;;20.13;;
1400;SDS011;46518;48.842;8.926;2023-03-04T08:11:07;37.90;;;20.38;;
1400;SDS011;46518;48.842;8.926;2023-03-04T08:13:36;34.00;;;21.08;;
1400;SDS011;46518;48.842;8.926;2023-03-04T08:16:05;38.15;;;20.33;;
1400;SDS011;46518;48.842;8.926;2023-03-04T08:18:34;37.42;;;20.63;;
1400;SDS011;46518;48.842;8.926;2023-03-04T08:21:02;35.92;;;19.48;;
1400;SDS011;46518;48.842;8.926;2023-03-04T08:23:39;37.38;;;19.95;;
1400;SDS011;46518;48.842;8.926;2023-03-04T08:26:08;35.65;;;19.08;;
1400;SDS011;46518;48.842;8.926;2023-03-04T08:28:38;34.45;;;20.05;;
1400;SDS011;46518;48.842;8.926;2023-03-04T08:31:07;41.97;;;21.85;;
1400;SDS011;46518;48.842;8.926;2023-03-04T08:33:37;31.42;;;20.05;;
1400;SDS011;46518;48.842;8.926;2023-03-04T08:36:06;30.20;;;19.48;;
1400;SDS011;46518;48.842;8.926;2023-03-04T08:38:38;35.42;;;20.30;;
1400;SDS011;46518;48.842;8.926;2023-03-04T08:41:07;28.20;;;17.67;;
1400;SDS011;46518;48.842;8.926;2023-03-04T08:43:38;39.50;;;20.50;;
1400;SDS011;46518;48.842;8.926;2023-03-04T08:46:06;41.33;;;22.05;;
1400;SDS011;46518;48.842;8.926;2023-03-04T08:48:35;33.45;;;20.27;;
1400;SDS011;46518;48.842;8.926;2023-03-04T08:51:07;43.30;;;21.30;;
1400;SDS011;46518;48.842;8.926;2023-03-04T08:53:37;44.03;;;23.25;;
1400;SDS011;46518;48.842;8.926;2023-03-04T08:56:06;39.72;;;23.30;;
1400;SDS011;46518;48.842;8.926;2023-03-04T08:58:35;38.38;;;23.15;;
1400;SDS011;46518;48.842;8.926;2023-03-04T09:01:04;34.10;;;20.75;;
1400;SDS011;46518;48.842;8.926;2023-03-04T09:03:34;37.90;;;21.77;;
1400;SDS011;46518;48.842;8.926;2023-03-04T09:06:03;41.08;;;23.25;;
1400;SDS011;46518;48.842;8.926;2023-03-04T09:08:32;36.28;;;21.42;;
1400;SDS011;46518;48.842;8.926;2023-03-04T09:11:02;34.10;;;20.63;;
1400;SDS011;46518;48.842;8.926;2023-03-04T09:13:31;43.83;;;23.83;;
1400;SDS011;46518;48.842;8.926;2023-03-04T09:16:00;39.13;;;24.70;;
1400;SDS011;46518;48.842;8.926;2023-03-04T09:18:28;36.28;;;22.40;;
1400;SDS011;46518;48.842;8.926;2023-03-04T09:20:57;42.80;;;24.35;;
1400;SDS011;46518;48.842;8.926;2023-03-04T09:23:25;40.42;;;23.00;;
1400;SDS011;46518;48.842;8.926;2023-03-04T09:25:53;44.30;;;24.25;;
1400;SDS011;46518;48.842;8.926;2023-03-04T09:28:22;41.10;;;23.17;;
1400;SDS011;46518;48.842;8.926;2023-03-04T09:31:14;43.30;;;23.95;;
1400;SDS011;46518;48.842;8.926;2023-03-04T09:33:43;43.42;;;25.40;;
1400;SDS011;46518;48.842;8.926;2023-03-04T09:36:12;39.50;;;22.92;;
1400;SDS011;46518;48.842;8.926;2023-03-04T09:38:42;48.10;;;28.38;;
1400;SDS011;46518;48.842;8.926;2023-03-04T09:41:12;49.65;;;25.83;;
1400;SDS011;46518;48.842;8.926;2023-03-04T09:43:44;45.20;;;25.00;;
1400;SDS011;46518;48.842;8.926;2023-03-04T09:46:16;39.50;;;22.42;;
1400;SDS011;46518;48.842;8.926;2023-03-04T09:48:50;55.67;;;29.35;;
1400;SDS011;46518;48.842;8.926;2023-03-04T09:51:21;55.10;;;29.42;;
1400;SDS011;46518;48.842;8.926;2023-03-04T09:54:04;46.38;;;25.08;;
1400;SDS011;46518;48.842;8.926;2023-03-04T09:56:35;51.65;;;27.80;;
1400;SDS011;46518;48.842;8.926;2023-03-04T09:59:10;55.65;;;28.27;;
1400;SDS011;46518;48.842;8.926;2023-03-04T10:01:45;55.03;;;28.48;;
1400;SDS011;46518;48.842;8.926;2023-03-04T10:04:17;55.50;;;29.17;;
1400;SDS011;46518;48.842;8.926;2023-03-04T10:06:55;54.58;;;28.30;;
1400;SDS011;46518;48.842;8.926;2023-03-04T10:09:24;53.88;;;30.67;;
1400;SDS011;46518;48.842;8.926;2023-03-04T10:11:58;50.63;;;28.88;;
1400;SDS011;46518;48.842;8.926;2023-03-04T10:14:32;73.28;;;33.67;;
1400;SDS011;46518;48.842;8.926;2023-03-04T10:17:10;63.67;;;31.95;;
1400;SDS011;46518;48.842;8.926;2023-03-04T10:19:50;56.50;;;31.40;;
1400;SDS011;46518;48.842;8.926;2023-03-04T10:22:24;51.38;;;29.75;;
1400;SDS011;46518;48.842;8.926;2023-03-04T10:24:58;65.97;;;33.42;;
1400;SDS011;46518;48.842;8.926;2023-03-04T10:27:29;53.40;;;30.80;;
1400;SDS011;46518;48.842;8.926;2023-03-04T10:29:59;56.97;;;31.00;;
1400;SDS011;46518;48.842;8.926;2023-03-04T10:32:30;48.60;;;29.85;;
1400;SDS011;46518;48.842;8.926;2023-03-04T10:34:58;56.28;;;29.83;;
1400;SDS011;46518;48.842;8.926;2023-03-04T10:37:41;46.72;;;28.23;;
1400;SDS011;46518;48.842;8.926;2023-03-04T10:40:17;53.65;;;30.05;;
1400;SDS011;46518;48.842;8.926;2023-03-04T10:42:47;56.00;;;28.95;;
1400;SDS011;46518;48.842;8.926;2023-03-04T10:45:21;52.95;;;27.83;;
1400;SDS011;46518;48.842;8.926;2023-03-04T10:47:51;59.15;;;29.05;;
1400;SDS011;46518;48.842;8.926;2023-03-04T10:50:22;54.35;;;30.10;;
1400;SDS011;46518;48.842;8.926;2023-03-04T10:52:53;50.90;;;28.58;;
1400;SDS011;46518;48.842;8.926;2023-03-04T10:55:23;53.63;;;28.90;;
1400;SDS011;46518;48.842;8.926;2023-03-04T10:57:55;50.08;;;30.80;;
1400;SDS011;46518;48.842;8.926;2023-03-04T11:00:31;54.72;;;28.67;;
1400;SDS011;46518;48.842;8.926;2023-03-04T11:03:21;52.38;;;29.55;;
1400;SDS011;46518;48.842;8.926;2023-03-04T11:06:06;52.22;;;28.88;;
1400;SDS011;46518;48.842;8.926;2023-03-04T11:08:42;53.63;;;27.85;;
1400;SDS011;46518;48.842;8.926;2023-03-04T11:14:01;59.55;;;30.40;;
1400;SDS011;46518;48.842;8.926;2023-03-04T11:16:40;46.88;;;26.13;;
1400;SDS011;46518;48.842;8.926;2023-03-04T11:19:20;53.22;;;29.00;;
1400;SDS011;46518;48.842;8.926;2023-03-04T11:21:51;44.28;;;25.05;;
1400;SDS011;46518;48.842;8.926;2023-03-04T11:24:21;50.10;;;26.83;;
1400;SDS011;46518;48.842;8.926;2023-03-04T11:26:56;47.75;;;25.67;;
1400;SDS011;46518;48.842;8.926;2023-03-04T11:29:30;55.88;;;27.60;;
1400;SDS011;46518;48.842;8.926;2023-03-04T11:32:06;51.58;;;26.70;;
1400;SDS011;46518;48.842;8.926;2023-03-04T11:34:40;47.45;;;28.35;;
1400;SDS011;46518;48.842;8.926;2023-03-04T11:37:15;41.70;;;25.23;;
1400;SDS011;46518;48.842;8.926;2023-03-04T11:39:49;41.42;;;26.45;;
1400;SDS011;46518;48.842;8.926;2023-03-04T11:42:23;43.90;;;25.70;;
1400;SDS011;46518;48.842;8.926;2023-03-04T11:45:00;46.72;;;25.85;;
1400;SDS011;46518;48.842;8.926;2023-03-04T11:50:30;48.17;;;25.73;;
1400;SDS011;46518;48.842;8.926;2023-03-04T11:53:14;43.15;;;23.10;;
1400;SDS011;46518;48.842;8.926;2023-03-04T11:55:58;44.50;;;24.10;;
1400;SDS011;46518;48.842;8.926;2023-03-04T11:58:39;58.20;;;26.95;;
1400;SDS011;46518;48.842;8.926;2023-03-04T12:01:17;42.97;;;24.70;;
1400;SDS011;46518;48.842;8.926;2023-03-04T12:06:54;43.38;;;26.38;;
1400;SDS011;46518;48.842;8.926;2023-03-04T12:09:37;45.83;;;25.38;;
1400;SDS011;46518;48.842;8.926;2023-03-04T12:12:21;48.67;;;27.02;;
1400;SDS011;46518;48.842;8.926;2023-03-04T12:15:00;40.28;;;24.90;;
1400;SDS011;46518;48.842;8.926;2023-03-04T12:17:40;54.22;;;29.80;;
1400;SDS011;46518;48.842;8.926;2023-03-04T12:20:39;57.78;;;27.75;;
1400;SDS011;46518;48.842;8.926;2023-03-04T12:23:26;47.15;;;26.42;;
1400;SDS011;46518;48.842;8.926;2023-03-04T12:26:06;52.10;;;28.95;;
1400;SDS011;46518;48.842;8.926;2023-03-04T12:28:46;50.50;;;27.05;;
1400;SDS011;46518;48.842;8.926;2023-03-04T12:31:32;55.08;;;29.83;;
1400;SDS011;46518;48.842;8.926;2023-03-04T12:34:25;62.05;;;32.55;;
1400;SDS011;46518;48.842;8.926;2023-03-04T12:37:03;66.90;;;30.98;;
1400;SDS011;46518;48.842;8.926;2023-03-04T12:39:47;53.72;;;27.40;;
1400;SDS011;46518;48.842;8.926;2023-03-04T12:42:27;50.22;;;28.77;;
1400;SDS011;46518;48.842;8.926;2023-03-04T12:45:07;56.53;;;30.35;;
1400;SDS011;46518;48.842;8.926;2023-03-04T12:47:49;58.92;;;28.95;;
1400;SDS011;46518;48.842;8.926;2023-03-04T12:50:30;53.25;;;29.15;;
1400;SDS011;46518;48.842;8.926;2023-03-04T12:53:07;54.03;;;27.95;;
1400;SDS011;46518;48.842;8.926;2023-03-04T12:55:44;52.13;;;26.02;;
1400;SDS011;46518;48.842;8.926;2023-03-04T12:58:14;55.30;;;26.75;;
1400;SDS011;46518;48.842;8.926;2023-03-04T13:00:47;43.72;;;25.02;;
1400;SDS011;46518;48.842;8.926;2023-03-04T13:03:26;50.00;;;24.38;;
1400;SDS011;46518;48.842;8.926;2023-03-04T13:06:04;49.88;;;24.15;;
1400;SDS011;46518;48.842;8.926;2023-03-04T13:08:47;39.30;;;22.73;;
1400;SDS011;46518;48.842;8.926;2023-03-04T13:14:31;32.42;;;21.02;;
1400;SDS011;46518;48.842;8.926;2023-03-04T13:17:01;39.60;;;24.13;;
1400;SDS011;46518;48.842;8.926;2023-03-04T13:22:52;46.53;;;25.55;;
1400;SDS011;46518;48.842;8.926;2023-03-04T13:25:36;37.72;;;21.42;;
1400;SDS011;46518;48.842;8.926;2023-03-04T13:28:12;39.97;;;23.08;;
1400;SDS011;46518;48.842;8.926;2023-03-04T13:33:53;39.92;;;21.63;;
1400;SDS011;46518;48.842;8.926;2023-03-04T13:39:28;48.65;;;23.40;;
1400;SDS011;46518;48.842;8.926;2023-03-04T13:42:00;47.10;;;24.20;;
1400;SDS011;46518;48.842;8.926;2023-03-04T13:47:32;42.30;;;22.90;;
1400;SDS011;46518;48.842;8.926;2023-03-04T13:50:20;47.13;;;21.88;;
1400;SDS011;46518;48.842;8.926;2023-03-04T13:53:20;43.20;;;24.27;;
1400;SDS011;46518;48.842;8.926;2023-03-04T13:56:00;46.97;;;23.35;;
1400;SDS011;46518;48.842;8.926;2023-03-04T13:58:34;41.00;;;21.20;;
1400;SDS011;46518;48.842;8.926;2023-03-04T14:01:03;45.83;;;21.95;;
1400;SDS011;46518;48.842;8.926;2023-03-04T14:03:34;45.42;;;22.23;;
1400;SDS011;46518;48.842;8.926;2023-03-04T14:06:09;50.97;;;23.20;;
1400;SDS011;46518;48.842;8.926;2023-03-04T14:08:38;42.10;;;20.40;;
1400;SDS011;46518;48.842;8.926;2023-03-04T14:11:09;38.53;;;21.58;;
1400;SDS011;46518;48.842;8.926;2023-03-04T14:13:41;38.97;;;22.67;;
1400;SDS011;46518;48.842;8.926;2023-03-04T14:16:10;48.55;;;24.52;;
1400;SDS011;46518;48.842;8.926;2023-03-04T14:18:38;43.90;;;22.60;;
1400;SDS011;46518;48.842;8.926;2023-03-04T14:21:09;42.97;;;23.40;;
1400;SDS011;46518;48.842;8.926;2023-03-04T14:23:41;39.45;;;22.42;;
1400;SDS011;46518;48.842;8.926;2023-03-04T14:26:10;41.00;;;22.52;;
1400;SDS011;46518;48.842;8.926;2023-03-04T14:28:46;53.85;;;22.45;;
1400;SDS011;46518;48.842;8.926;2023-03-04T14:31:16;50.35;;;22.00;;
1400;SDS011;46518;48.842;8.926;2023-03-04T14:33:46;45.22;;;24.50;;
1400;SDS011;46518;48.842;8.926;2023-03-04T14:36:17;46.00;;;24.98;;
1400;SDS011;46518;48.842;8.926;2023-03-04T14:38:48;42.20;;;21.55;;
1400;SDS011;46518;48.842;8.926;2023-03-04T14:41:21;52.45;;;24.23;;
1400;SDS011;46518;48.842;8.926;2023-03-04T14:43:57;44.97;;;21.20;;
1400;SDS011;46518;48.842;8.926;2023-03-04T14:46:30;44.10;;;22.20;;
1400;SDS011;46518;48.842;8.926;2023-03-04T14:49:03;45.75;;;22.42;;
1400;SDS011;46518;48.842;8.926;2023-03-04T14:51:42;44.70;;;22.75;;
1400;SDS011;46518;48.842;8.926;2023-03-04T14:54:25;45.22;;;22.77;;
1400;SDS011;46518;48.842;8.926;2023-03-04T14:56:58;39.03;;;21.70;;
1400;SDS011;46518;48.842;8.926;2023-03-04T14:59:30;44.33;;;21.05;;
1400;SDS011;46518;48.842;8.926;2023-03-04T15:02:19;42.40;;;21.83;;
1400;SDS011;46518;48.842;8.926;2023-03-04T15:04:56;49.83;;;22.63;;
1400;SDS011;46518;48.842;8.926;2023-03-04T15:07:29;47.97;;;23.48;;
1400;SDS011;46518;48.842;8.926;2023-03-04T15:10:00;42.63;;;21.73;;
1400;SDS011;46518;48.842;8.926;2023-03-04T15:12:32;47.85;;;23.10;;
1400;SDS011;46518;48.842;8.926;2023-03-04T15:15:04;43.33;;;21.85;;
1400;SDS011;46518;48.842;8.926;2023-03-04T15:17:56;43.53;;;22.10;;
1400;SDS011;46518;48.842;8.926;2023-03-04T15:20:25;37.95;;;21.15;;
1400;SDS011;46518;48.842;8.926;2023-03-04T15:23:03;41.63;;;22.48;;